Time;durP1;ratioP1;P1;durP2;ratioP2;P2;SDS_P1;SDS_P2;PMS_P1;PMS_P2;Temp;Humidity;BMP_temperature;BMP_pressure;BME280_temperature;BME280_humidity;BME280_pressure;Samples;Min_cycle;Max_cycle;Signal;HPM_P1;HPM_P2
2022/07/15 00:00:47;;;;;;;2.38;2.10;;;21.80;79.40;;;;;;5029609;28;20069;-90
2022/07/15 00:03:13;;;;;;;2.45;2.22;;;21.80;79.60;;;;;;5024690;28;20140;-91
2022/07/15 00:05:39;;;;;;;2.20;2.05;;;21.80;79.60;;;;;;5023553;28;20133;-92
2022/07/15 00:08:05;;;;;;;2.20;2.00;;;21.80;79.70;;;;;;5010883;28;20087;-92
2022/07/15 00:10:31;;;;;;;2.83;1.63;;;21.80;79.70;;;;;;5023508;28;20038;-92
2022/07/15 00:12:59;;;;;;;2.78;1.73;;;21.80;79.50;;;;;;5008271;28;20069;-92
2022/07/15 00:15:28;;;;;;;1.80;1.70;;;21.70;79.60;;;;;;5020898;28;20040;-92
2022/07/15 00:17:54;;;;;;;4.88;2.55;;;21.70;79.60;;;;;;5001270;28;20037;-93
2022/07/15 00:20:22;;;;;;;3.80;2.20;;;21.70;79.60;;;;;;5018441;28;20486;-93
2022/07/15 00:22:48;;;;;;;2.65;2.20;;;21.70;79.80;;;;;;5003870;28;20342;-88
2022/07/15 00:25:15;;;;;;;2.90;2.10;;;21.70;79.90;;;;;;5033014;28;20052;-91
2022/07/15 00:28:10;;;;;;;2.78;1.83;;;21.70;79.90;;;;;;5031235;28;20034;-92
2022/07/15 00:30:40;;;;;;;2.08;1.98;;;21.70;79.80;;;;;;5012998;28;20535;-92
2022/07/15 00:33:07;;;;;;;4.10;1.80;;;21.70;79.70;;;;;;4996174;28;20030;-94
2022/07/15 00:35:34;;;;;;;2.35;1.98;;;21.60;79.70;;;;;;5029971;28;20037;-91
2022/07/15 00:38:01;;;;;;;2.65;1.98;;;21.70;79.80;;;;;;5030820;28;20034;-95
2022/07/15 00:40:28;;;;;;;3.35;1.80;;;21.60;79.70;;;;;;5013319;28;20107;-92
2022/07/15 00:42:54;;;;;;;2.63;1.98;;;21.70;79.90;;;;;;5021693;28;20038;-84
2022/07/15 00:45:22;;;;;;;2.15;1.85;;;21.60;79.90;;;;;;5018423;28;20033;-84
2022/07/15 00:47:50;;;;;;;2.97;2.13;;;21.60;80.00;;;;;;5016874;28;21093;-83
2022/07/15 00:50:18;;;;;;;2.15;1.92;;;21.60;80.10;;;;;;5008538;28;20504;-85
2022/07/15 00:52:48;;;;;;;2.92;1.95;;;21.60;80.10;;;;;;5018589;28;20068;-85
2022/07/15 00:55:15;;;;;;;4.78;2.10;;;21.60;80.10;;;;;;5024985;28;20113;-86
2022/07/15 00:57:43;;;;;;;2.67;1.85;;;21.60;80.00;;;;;;5021773;28;20754;-85
2022/07/15 01:00:11;;;;;;;2.55;1.90;;;21.60;79.80;;;;;;5020531;28;20037;-86
2022/07/15 01:02:43;;;;;;;2.35;2.00;;;21.60;79.70;;;;;;5035782;28;20046;-84
2022/07/15 01:05:11;;;;;;;3.03;1.73;;;21.60;79.70;;;;;;4991411;28;20139;-84
2022/07/15 01:07:40;;;;;;;3.10;2.00;;;21.50;79.60;;;;;;5020987;28;20030;-84
2022/07/15 01:10:07;;;;;;;2.25;2.00;;;21.50;79.60;;;;;;4996944;28;20785;-86
2022/07/15 01:12:37;;;;;;;1.95;1.75;;;21.50;79.50;;;;;;5004245;28;20034;-84
2022/07/15 01:15:04;;;;;;;2.55;1.77;;;21.50;80.20;;;;;;4991678;28;20488;-81
2022/07/15 01:17:32;;;;;;;1.80;1.70;;;21.50;79.60;;;;;;4989228;28;20170;-81
2022/07/15 01:19:59;;;;;;;2.63;1.70;;;21.40;80.30;;;;;;5002551;28;20381;-82
2022/07/15 01:22:27;;;;;;;2.67;2.05;;;21.50;79.80;;;;;;5022106;28;20032;-83
2022/07/15 01:24:53;;;;;;;3.75;2.10;;;21.50;79.70;;;;;;5001071;28;20029;-82
2022/07/15 01:27:26;;;;;;;2.50;1.92;;;21.50;79.70;;;;;;5020231;28;20060;-82
2022/07/15 01:29:53;;;;;;;10.10;2.00;;;21.50;79.60;;;;;;5021179;28;20038;-82
2022/07/15 01:32:21;;;;;;;1.85;1.73;;;21.40;79.50;;;;;;5031123;28;20092;-84
2022/07/15 01:34:50;;;;;;;5.75;1.80;;;21.50;79.50;;;;;;5029802;28;20523;-83
2022/07/15 01:37:18;;;;;;;2.38;1.40;;;21.50;79.60;;;;;;5016762;28;20048;-83
2022/07/15 01:39:50;;;;;;;2.22;1.60;;;21.40;79.40;;;;;;5028391;28;20060;-82
2022/07/15 01:42:17;;;;;;;2.30;1.80;;;21.40;79.50;;;;;;5006961;28;20049;-82
2022/07/15 01:44:43;;;;;;;2.08;1.50;;;21.40;79.70;;;;;;5010932;28;20396;-81
2022/07/15 01:47:10;;;;;;;5.40;1.75;;;21.40;79.50;;;;;;5006315;28;20035;-81
2022/07/15 01:49:36;;;;;;;2.63;1.70;;;21.40;79.50;;;;;;5031173;28;20447;-82
2022/07/15 01:52:04;;;;;;;2.38;1.67;;;21.40;79.50;;;;;;5022825;28;20399;-85
2022/07/15 01:54:31;;;;;;;2.40;1.70;;;21.40;79.50;;;;;;5007145;28;20394;-85
2022/07/15 01:57:01;;;;;;;3.67;1.80;;;21.40;79.70;;;;;;4988862;28;20034;-85
2022/07/15 01:59:28;;;;;;;2.95;1.90;;;21.40;79.60;;;;;;5023912;28;20045;-84
2022/07/15 02:01:57;;;;;;;2.47;1.85;;;21.40;79.60;;;;;;5025631;28;20049;-88
2022/07/15 02:04:23;;;;;;;1.70;1.60;;;21.40;79.60;;;;;;5025345;28;20128;-85
2022/07/15 02:06:50;;;;;;;3.90;1.58;;;21.40;79.60;;;;;;5039438;28;20432;-86
2022/07/15 02:09:19;;;;;;;2.67;1.70;;;21.40;79.80;;;;;;5024144;28;20388;-85
2022/07/15 02:11:48;;;;;;;2.13;1.65;;;21.30;79.70;;;;;;4991836;28;20776;-84
2022/07/15 02:14:14;;;;;;;1.85;1.45;;;21.40;79.80;;;;;;5023712;28;20042;-84
2022/07/15 02:16:41;;;;;;;3.20;1.35;;;21.40;79.90;;;;;;5009674;28;20037;-84
2022/07/15 02:19:12;;;;;;;1.92;1.60;;;21.40;80.10;;;;;;4993571;28;20425;-83
2022/07/15 02:21:38;;;;;;;1.98;1.60;;;21.40;80.00;;;;;;5009315;28;20408;-83
2022/07/15 02:24:05;;;;;;;3.65;1.65;;;21.30;80.00;;;;;;5024694;28;20034;-81
2022/07/15 02:26:31;;;;;;;1.50;1.40;;;21.40;80.10;;;;;;5024508;28;20048;-83
2022/07/15 02:28:57;;;;;;;4.50;1.40;;;21.40;80.20;;;;;;5035555;28;20172;-82
2022/07/15 02:31:26;;;;;;;1.88;1.50;;;21.40;80.10;;;;;;5009429;28;20501;-83
2022/07/15 02:33:52;;;;;;;2.30;1.77;;;21.40;80.20;;;;;;5018665;28;20060;-82
2022/07/15 02:36:18;;;;;;;2.50;1.52;;;21.40;80.20;;;;;;5019510;28;20505;-83
2022/07/15 02:38:46;;;;;;;1.67;1.30;;;21.40;80.20;;;;;;5007520;28;20037;-82
2022/07/15 02:41:14;;;;;;;2.92;1.30;;;21.40;80.20;;;;;;5007961;28;20117;-82
2022/07/15 02:43:42;;;;;;;1.67;1.55;;;21.50;80.40;;;;;;5008157;28;20045;-83
2022/07/15 02:46:09;;;;;;;3.33;1.50;;;21.50;80.50;;;;;;5020300;28;20124;-84
2022/07/15 02:48:37;;;;;;;1.50;1.40;;;21.50;80.60;;;;;;5012395;28;20400;-85
2022/07/15 02:51:04;;;;;;;1.63;1.40;;;21.50;80.50;;;;;;5011162;28;20034;-86
2022/07/15 02:53:30;;;;;;;1.98;1.70;;;21.60;80.60;;;;;;4990912;28;20036;-85
2022/07/15 02:56:00;;;;;;;2.20;1.60;;;21.60;80.70;;;;;;5006492;28;20035;-85
2022/07/15 02:58:28;;;;;;;2.10;1.50;;;21.60;80.70;;;;;;4996350;28;20033;-83
2022/07/15 03:00:54;;;;;;;1.42;1.27;;;21.70;80.60;;;;;;5024386;28;20135;-85
2022/07/15 03:03:21;;;;;;;2.75;1.33;;;21.80;80.30;;;;;;5011255;28;20408;-84
2022/07/15 03:05:48;;;;;;;1.98;1.63;;;21.90;80.00;;;;;;5023594;28;20040;-83
2022/07/15 03:08:15;;;;;;;1.75;1.52;;;22.00;79.50;;;;;;5011098;28;20037;-83
2022/07/15 03:10:42;;;;;;;2.97;1.67;;;22.10;79.70;;;;;;5005167;28;20037;-83
2022/07/15 03:13:08;;;;;;;3.38;1.80;;;22.10;79.40;;;;;;5003795;28;20038;-83
2022/07/15 03:15:34;;;;;;;1.75;1.65;;;22.10;79.60;;;;;;4994631;28;20389;-83
2022/07/15 03:18:00;;;;;;;4.28;1.75;;;22.10;79.60;;;;;;5011695;28;20405;-82
2022/07/15 03:20:27;;;;;;;3.55;1.90;;;22.20;79.70;;;;;;5010317;28;20030;-82
2022/07/15 03:22:54;;;;;;;3.47;1.75;;;22.10;79.50;;;;;;5011284;28;20026;-83
2022/07/15 03:25:21;;;;;;;2.85;2.22;;;22.20;79.70;;;;;;5020658;28;20033;-85
2022/07/15 03:27:47;;;;;;;3.35;2.35;;;22.20;79.60;;;;;;5025166;28;20026;-85
2022/07/15 03:30:14;;;;;;;3.05;2.05;;;22.20;79.40;;;;;;5021755;28;20129;-85
2022/07/15 03:32:42;;;;;;;3.85;2.75;;;22.20;79.60;;;;;;5023346;28;20119;-84
2022/07/15 03:35:09;;;;;;;3.47;2.70;;;22.20;79.50;;;;;;5011415;28;20037;-83
2022/07/15 03:37:37;;;;;;;3.95;2.53;;;22.20;79.20;;;;;;5027852;28;20069;-84
2022/07/15 03:40:05;;;;;;;3.72;2.85;;;22.20;79.40;;;;;;5010829;28;20179;-83
2022/07/15 03:42:31;;;;;;;5.18;2.55;;;22.20;79.20;;;;;;5004829;28;20038;-84
2022/07/15 03:44:58;;;;;;;4.30;2.80;;;22.20;79.40;;;;;;5010375;28;20388;-83
2022/07/15 03:47:24;;;;;;;3.33;2.97;;;22.20;79.00;;;;;;5026816;28;20033;-81
2022/07/15 03:49:53;;;;;;;3.97;2.50;;;22.20;79.10;;;;;;5011363;28;20040;-82
2022/07/15 03:52:19;;;;;;;5.93;2.95;;;22.30;79.20;;;;;;5021386;28;20184;-84
2022/07/15 03:54:47;;;;;;;3.38;2.50;;;22.30;79.20;;;;;;5024939;28;20038;-86
2022/07/15 03:57:13;;;;;;;3.22;2.60;;;22.30;78.80;;;;;;5024162;28;20049;-91
2022/07/15 03:59:39;;;;;;;2.70;2.38;;;22.50;78.60;;;;;;5004889;28;20037;-89
2022/07/15 04:02:05;;;;;;;3.25;2.60;;;22.50;78.90;;;;;;4993566;28;20049;-87
2022/07/15 04:04:31;;;;;;;3.38;2.60;;;22.50;78.80;;;;;;5025028;28;20095;-90
2022/07/15 04:06:57;;;;;;;3.95;2.22;;;22.50;78.90;;;;;;5025921;28;20694;-85
2022/07/15 04:09:23;;;;;;;2.92;2.03;;;22.50;78.70;;;;;;5006670;28;20037;-86
2022/07/15 04:11:49;;;;;;;2.30;2.10;;;22.60;79.30;;;;;;5019769;28;20128;-85
2022/07/15 04:14:17;;;;;;;2.72;2.00;;;22.60;78.20;;;;;;5018113;28;20506;-86
2022/07/15 04:16:44;;;;;;;1.95;1.75;;;22.70;78.10;;;;;;5007186;28;20026;-84
2022/07/15 04:19:26;;;;;;;1.75;1.65;;;22.70;78.20;;;;;;5007243;28;20113;-82
2022/07/15 04:21:56;;;;;;;3.58;2.00;;;22.70;78.10;;;;;;5036099;28;20042;-88
2022/07/15 04:24:22;;;;;;;2.70;1.70;;;22.80;77.90;;;;;;5006899;28;20033;-87
2022/07/15 04:26:48;;;;;;;1.77;1.60;;;22.90;77.50;;;;;;5001462;28;20083;-78
2022/07/15 04:29:16;;;;;;;2.58;1.75;;;23.10;76.90;;;;;;5005555;28;20044;-83
2022/07/15 04:31:43;;;;;;;2.08;1.50;;;23.20;76.40;;;;;;5005591;28;20041;-77
2022/07/15 04:34:14;;;;;;;1.73;1.42;;;23.40;76.10;;;;;;5017257;28;20038;-79
2022/07/15 04:36:42;;;;;;;1.20;1.10;;;23.60;75.80;;;;;;5017871;28;20128;-82
2022/07/15 04:39:09;;;;;;;3.38;1.48;;;23.70;75.50;;;;;;5005802;28;20047;-81
2022/07/15 04:41:36;;;;;;;1.55;1.20;;;23.90;75.30;;;;;;4989101;28;20493;-79
2022/07/15 04:44:04;;;;;;;1.85;1.20;;;24.00;75.10;;;;;;5017752;28;20488;-81
2022/07/15 04:46:31;;;;;;;2.25;1.20;;;24.10;74.80;;;;;;5016548;28;20031;-80
2022/07/15 05:06:07;;;;;;;1.00;1.00;;;24.60;73.80;;;;;;5088585;27;1490832;-89
2022/07/15 05:08:35;;;;;;;1.70;0.90;;;25.80;72.00;;;;;;5102079;28;20149;-90
2022/07/15 05:11:01;;;;;;;0.93;0.88;;;25.70;72.40;;;;;;5098813;28;20092;-88
2022/07/15 05:13:28;;;;;;;4.13;1.10;;;25.80;72.40;;;;;;5083593;28;20044;-78
2022/07/15 05:15:57;;;;;;;2.45;1.40;;;25.90;71.40;;;;;;5101148;28;20060;-79
2022/07/15 05:18:25;;;;;;;2.45;1.70;;;26.00;70.10;;;;;;5096246;28;20039;-79
2022/07/15 05:20:53;;;;;;;5.07;1.73;;;26.10;69.60;;;;;;5083301;28;20417;-80
2022/07/15 05:23:22;;;;;;;4.43;1.50;;;26.10;67.40;;;;;;5096678;28;20031;-81
2022/07/15 05:25:59;;;;;;;2.80;1.40;;;26.20;66.60;;;;;;5079574;28;20522;-80
2022/07/15 05:28:25;;;;;;;2.45;1.13;;;26.30;66.60;;;;;;5066607;28;20052;-78
2022/07/15 05:30:51;;;;;;;1.48;1.20;;;26.40;66.50;;;;;;5086610;28;20028;-88
2022/07/15 05:33:17;;;;;;;3.45;1.33;;;26.50;65.00;;;;;;5068075;28;20035;-91
2022/07/15 05:35:44;;;;;;;6.00;1.38;;;26.60;64.80;;;;;;5067610;28;20036;-84
2022/07/15 05:38:12;;;;;;;1.60;1.38;;;26.70;69.00;;;;;;5084686;28;20482;-84
2022/07/15 05:40:41;;;;;;;2.25;1.13;;;26.80;66.80;;;;;;5080442;28;20073;-83
2022/07/15 05:43:07;;;;;;;2.85;0.88;;;26.80;64.20;;;;;;5097636;28;20445;-82
2022/07/15 05:45:35;;;;;;;3.83;1.20;;;26.80;62.70;;;;;;5080985;28;20564;-83
2022/07/15 05:48:06;;;;;;;2.97;1.05;;;26.80;68.90;;;;;;5097645;28;20028;-87
2022/07/15 05:50:37;;;;;;;2.53;1.00;;;27.00;68.90;;;;;;5080802;28;20039;-82
2022/07/15 05:53:03;;;;;;;3.20;1.17;;;27.00;65.20;;;;;;5095870;28;20131;-81
2022/07/15 05:55:29;;;;;;;3.00;0.90;;;27.10;68.50;;;;;;5097242;28;20042;-85
2022/07/15 05:57:55;;;;;;;5.38;1.00;;;27.30;66.00;;;;;;5066980;28;20115;-83
2022/07/15 06:00:25;;;;;;;0.80;0.80;;;27.20;66.80;;;;;;5066030;28;20077;-87
2022/07/15 06:02:51;;;;;;;1.02;0.77;;;27.20;64.30;;;;;;5096970;28;20040;-89
2022/07/15 06:05:21;;;;;;;2.13;0.80;;;27.20;64.40;;;;;;5083528;28;20088;-87
2022/07/15 06:07:57;;;;;;;1.92;0.95;;;27.40;66.70;;;;;;5049611;28;20037;-84
2022/07/15 06:10:28;;;;;;;2.15;1.00;;;27.60;65.50;;;;;;5061721;28;20068;-86
2022/07/15 06:12:56;;;;;;;1.30;0.77;;;27.60;65.50;;;;;;5054154;28;20048;-82
2022/07/15 06:15:23;;;;;;;4.95;1.25;;;27.50;61.80;;;;;;5071319;28;20041;-81
2022/07/15 06:17:49;;;;;;;2.03;0.98;;;27.50;60.80;;;;;;5050099;28;20048;-81
2022/07/15 06:20:16;;;;;;;3.65;1.10;;;27.10;60.10;;;;;;5060403;28;20060;-81
2022/07/15 06:22:42;;;;;;;5.10;1.15;;;27.20;61.80;;;;;;5062752;28;20067;-84
2022/07/15 06:25:09;;;;;;;2.08;0.90;;;27.30;63.90;;;;;;5064291;28;20537;-83
2022/07/15 06:27:35;;;;;;;2.03;0.95;;;27.40;62.10;;;;;;5069026;28;20035;-83
2022/07/15 06:30:01;;;;;;;2.55;1.10;;;27.50;64.00;;;;;;5072604;28;20064;-82
2022/07/15 06:32:28;;;;;;;1.00;0.80;;;27.60;65.90;;;;;;5067222;28;20029;-82
2022/07/15 06:34:54;;;;;;;1.27;0.80;;;27.50;60.80;;;;;;5071401;28;20376;-83
2022/07/15 06:37:20;;;;;;;1.85;0.70;;;27.70;63.30;;;;;;5053179;28;20024;-83
2022/07/15 06:39:47;;;;;;;1.25;0.80;;;27.70;61.80;;;;;;5061569;28;20075;-84
2022/07/15 06:42:13;;;;;;;4.22;1.00;;;27.70;60.90;;;;;;5064383;28;20428;-84
2022/07/15 06:44:39;;;;;;;1.55;0.70;;;27.70;63.10;;;;;;5064779;28;20033;-84
2022/07/15 06:47:08;;;;;;;1.25;1.10;;;27.70;61.60;;;;;;5065935;28;20055;-83
2022/07/15 06:49:34;;;;;;;1.60;1.17;;;27.70;60.50;;;;;;5048972;28;20025;-83
2022/07/15 06:52:04;;;;;;;1.70;1.00;;;27.70;60.60;;;;;;5048238;28;20435;-82
2022/07/15 06:54:30;;;;;;;1.38;1.20;;;27.70;60.20;;;;;;5068873;28;20052;-83
2022/07/15 06:56:57;;;;;;;1.65;1.30;;;27.70;61.90;;;;;;5071903;28;20043;-85
2022/07/15 06:59:23;;;;;;;2.25;1.50;;;27.80;63.60;;;;;;5073444;28;20588;-83
2022/07/15 07:01:50;;;;;;;1.90;1.30;;;27.80;63.20;;;;;;5051919;28;20036;-83
2022/07/15 07:04:16;;;;;;;3.00;1.60;;;27.90;62.80;;;;;;5071638;28;20633;-85
2022/07/15 07:06:42;;;;;;;4.70;1.80;;;27.90;62.90;;;;;;5091016;28;20056;-87
2022/07/15 07:09:08;;;;;;;1.63;1.40;;;27.90;63.30;;;;;;5092960;28;20032;-85
2022/07/15 07:11:34;;;;;;;3.78;1.52;;;27.90;62.10;;;;;;5085972;28;20032;-86
2022/07/15 07:14:00;;;;;;;4.53;1.27;;;27.80;58.60;;;;;;5082703;28;20035;-83
2022/07/15 07:16:26;;;;;;;2.05;1.20;;;27.70;58.60;;;;;;5089067;28;20032;-83
2022/07/15 07:18:52;;;;;;;1.73;1.20;;;27.80;59.00;;;;;;5070495;28;20063;-82
2022/07/15 07:21:19;;;;;;;1.35;1.20;;;27.80;59.10;;;;;;5071577;28;20044;-87
2022/07/15 07:23:46;;;;;;;7.55;1.30;;;27.80;59.00;;;;;;5084005;28;20105;-88
2022/07/15 07:26:16;;;;;;;1.60;1.35;;;28.00;59.40;;;;;;5090571;28;20039;-82
2022/07/15 07:28:43;;;;;;;3.17;1.48;;;28.00;59.30;;;;;;5074083;28;20032;-92
2022/07/15 07:31:10;;;;;;;2.65;1.42;;;28.00;58.70;;;;;;5055132;28;20040;-83
2022/07/15 07:33:37;;;;;;;0.95;0.90;;;28.00;58.60;;;;;;5074477;28;20044;-85
2022/07/15 07:36:05;;;;;;;1.65;1.17;;;28.00;57.60;;;;;;5090837;28;20459;-84
2022/07/15 07:38:32;;;;;;;4.60;1.20;;;28.00;58.40;;;;;;5089425;28;20143;-84
2022/07/15 07:40:58;;;;;;;1.67;1.00;;;28.00;57.60;;;;;;5088010;28;20032;-81
2022/07/15 07:43:24;;;;;;;2.38;1.13;;;27.80;58.10;;;;;;5089842;28;20788;-82
2022/07/15 07:45:51;;;;;;;2.38;1.20;;;27.80;58.80;;;;;;5082943;28;20040;-84
2022/07/15 07:48:17;;;;;;;1.85;1.35;;;27.70;58.80;;;;;;5091534;28;20493;-86
2022/07/15 07:50:44;;;;;;;2.72;1.13;;;27.70;59.20;;;;;;5090240;28;20032;-84
2022/07/15 07:53:11;;;;;;;1.52;1.42;;;27.70;57.40;;;;;;5092630;28;20028;-84
2022/07/15 07:55:38;;;;;;;3.58;1.50;;;27.70;58.30;;;;;;5090683;28;20037;-82
2022/07/15 07:58:04;;;;;;;2.72;1.30;;;27.80;58.10;;;;;;5080604;28;20119;-82
2022/07/15 08:00:31;;;;;;;1.35;1.25;;;27.70;57.80;;;;;;5082699;28;20123;-81
2022/07/15 08:02:59;;;;;;;3.00;1.35;;;27.60;58.60;;;;;;5079163;28;20032;-80
2022/07/15 08:05:26;;;;;;;4.78;1.45;;;27.50;58.10;;;;;;5079307;28;20445;-79
2022/07/15 08:08:09;;;;;;;3.10;1.60;;;27.50;58.50;;;;;;5079955;28;20036;-79
2022/07/15 08:10:35;;;;;;;2.25;1.50;;;27.40;57.50;;;;;;5080136;28;20048;-79
2022/07/15 08:13:01;;;;;;;4.00;1.63;;;27.40;57.70;;;;;;5079696;28;20047;-79
2022/07/15 08:15:28;;;;;;;2.25;1.65;;;27.40;58.40;;;;;;5082623;28;20040;-79
2022/07/15 08:17:54;;;;;;;2.45;1.40;;;27.40;58.80;;;;;;5083202;28;20498;-79
2022/07/15 08:20:20;;;;;;;3.00;1.45;;;27.40;58.60;;;;;;5081842;28;20487;-79
2022/07/15 08:22:46;;;;;;;3.42;1.30;;;27.40;59.50;;;;;;5083415;28;20488;-83
2022/07/15 08:25:12;;;;;;;3.17;1.63;;;27.40;58.10;;;;;;5082388;28;20063;-79
2022/07/15 08:27:38;;;;;;;3.03;1.38;;;27.40;57.80;;;;;;5079033;28;20510;-80
2022/07/15 08:30:05;;;;;;;2.08;1.58;;;27.30;57.60;;;;;;5082875;28;20039;-80
2022/07/15 08:32:31;;;;;;;3.00;1.73;;;27.10;56.30;;;;;;5082649;28;20032;-84
2022/07/15 08:34:57;;;;;;;1.45;1.35;;;27.10;59.20;;;;;;5088054;28;20043;-81
2022/07/15 08:37:26;;;;;;;3.97;1.52;;;27.20;57.90;;;;;;5091635;28;20039;-88
2022/07/15 08:39:52;;;;;;;2.05;1.50;;;27.20;57.80;;;;;;5072636;28;20173;-87
2022/07/15 08:42:19;;;;;;;4.00;1.58;;;27.10;57.70;;;;;;5075114;28;20052;-86
2022/07/15 08:44:45;;;;;;;3.00;1.55;;;27.00;57.70;;;;;;5084152;28;20040;-86
2022/07/15 08:47:11;;;;;;;3.63;1.67;;;26.90;57.80;;;;;;5084819;28;20036;-90
2022/07/15 08:49:39;;;;;;;3.67;1.52;;;26.80;58.00;;;;;;5082537;28;20032;-83
2022/07/15 08:52:06;;;;;;;3.00;1.52;;;26.80;57.40;;;;;;5084500;28;20082;-86
2022/07/15 08:54:32;;;;;;;2.75;1.40;;;26.80;57.80;;;;;;5081528;28;20071;-88
2022/07/15 08:56:59;;;;;;;4.43;1.50;;;26.90;58.80;;;;;;5081610;28;20036;-82
2022/07/15 08:59:25;;;;;;;2.35;1.42;;;26.80;56.70;;;;;;5083073;28;20372;-82
2022/07/15 09:01:53;;;;;;;2.85;1.48;;;26.80;56.30;;;;;;5052756;28;20032;-85
2022/07/15 09:04:19;;;;;;;4.45;1.30;;;26.80;56.00;;;;;;5081108;28;20051;-86
2022/07/15 09:06:48;;;;;;;6.03;1.40;;;26.80;54.80;;;;;;5080978;28;20487;-81
2022/07/15 09:09:35;;;;;;;3.05;1.15;;;26.70;54.80;;;;;;5081227;28;20035;-82
2022/07/15 09:12:08;;;;;;;3.28;1.30;;;26.60;53.90;;;;;;5080928;28;20552;-86
2022/07/15 09:14:36;;;;;;;2.28;1.30;;;26.50;55.60;;;;;;5079966;28;20097;-79
2022/07/15 09:17:11;;;;;;;1.60;1.50;;;26.50;56.90;;;;;;5080154;28;20198;-84
2022/07/15 09:20:08;;;;;;;2.38;1.50;;;26.40;56.00;;;;;;5062980;28;20521;-82
2022/07/15 09:22:48;;;;;;;1.63;1.35;;;26.40;56.60;;;;;;5049994;28;20040;-82
2022/07/15 09:25:14;;;;;;;4.95;1.55;;;26.40;56.80;;;;;;5080572;28;20090;-85
2022/07/15 09:27:44;;;;;;;3.53;1.15;;;26.30;56.30;;;;;;5080774;28;20804;-80
2022/07/15 09:38:58;;;;;;;3.47;1.60;;;26.00;63.10;;;;;;5088849;27;20115;-81
2022/07/15 09:41:42;;;;;;;4.88;1.40;;;26.00;59.50;;;;;;5059147;28;20033;-82
2022/07/15 09:44:19;;;;;;;3.75;1.42;;;26.00;59.40;;;;;;5060961;28;20047;-81
2022/07/15 09:46:49;;;;;;;3.75;1.80;;;25.90;57.40;;;;;;5057805;28;20059;-78
2022/07/15 09:49:27;;;;;;;2.85;1.50;;;25.90;55.70;;;;;;5056843;28;20059;-77
2022/07/15 09:51:57;;;;;;;2.45;1.42;;;25.80;54.70;;;;;;5056038;28;20403;-77
2022/07/15 09:54:32;;;;;;;4.00;1.40;;;25.80;56.50;;;;;;5056983;28;20067;-77
2022/07/15 09:57:07;;;;;;;3.03;1.52;;;25.80;54.70;;;;;;5056732;28;20794;-77
2022/07/15 09:59:34;;;;;;;2.42;1.30;;;25.70;55.00;;;;;;5066899;28;20037;-77
2022/07/15 10:02:00;;;;;;;7.38;1.65;;;25.70;54.90;;;;;;5086889;28;20035;-78
2022/07/15 10:04:29;;;;;;;2.53;1.60;;;25.60;54.70;;;;;;5085146;28;20055;-78
2022/07/15 10:06:59;;;;;;;5.32;1.60;;;25.70;56.30;;;;;;5041271;28;20033;-79
2022/07/15 10:09:31;;;;;;;3.35;1.40;;;25.70;54.50;;;;;;5050285;28;20140;-79
2022/07/15 10:12:04;;;;;;;3.10;1.40;;;25.60;55.20;;;;;;5065377;28;20036;-79
2022/07/15 10:15:04;;;;;;;4.00;1.42;;;25.60;54.40;;;;;;5065541;28;20045;-79
2022/07/15 10:17:52;;;;;;;2.58;1.23;;;25.50;52.60;;;;;;5044226;28;20054;-79
2022/07/15 10:20:46;;;;;;;2.28;1.50;;;25.50;53.50;;;;;;5080240;28;20442;-78
2022/07/15 10:23:48;;;;;;;4.30;1.38;;;25.50;54.30;;;;;;5066460;28;20039;-79
2022/07/15 10:26:39;;;;;;;1.58;1.10;;;25.50;57.40;;;;;;5068118;28;20356;-84
2022/07/15 10:29:07;;;;;;;2.17;1.50;;;25.50;55.00;;;;;;5035841;28;20035;-80
2022/07/15 10:31:35;;;;;;;1.77;1.33;;;25.40;56.00;;;;;;5048181;28;20037;-82
2022/07/15 10:34:06;;;;;;;2.85;1.20;;;25.50;55.60;;;;;;5057107;28;20132;-81
2022/07/15 10:37:02;;;;;;;1.80;1.70;;;25.50;56.00;;;;;;5024857;28;20036;-91
2022/07/15 10:39:49;;;;;;;3.25;1.60;;;25.50;57.30;;;;;;5059321;28;20039;-83
2022/07/15 10:42:17;;;;;;;5.53;1.40;;;25.60;59.90;;;;;;5057084;28;20028;-86
2022/07/15 10:44:58;;;;;;;6.03;1.52;;;25.60;58.00;;;;;;5037178;28;20033;-91
2022/07/15 10:47:25;;;;;;;5.00;1.80;;;25.70;57.30;;;;;;5056498;28;20079;-88
2022/07/15 10:49:53;;;;;;;3.00;1.63;;;25.70;57.50;;;;;;5027303;28;20037;-88
2022/07/15 10:52:27;;;;;;;4.65;1.65;;;25.70;57.70;;;;;;5043231;28;20418;-87
2022/07/15 10:54:59;;;;;;;6.70;1.55;;;25.80;58.80;;;;;;5040546;28;20043;-85
2022/07/15 10:57:41;;;;;;;4.22;2.33;;;25.80;59.10;;;;;;5019224;28;20048;-85
2022/07/15 11:00:15;;;;;;;4.70;1.70;;;25.80;58.40;;;;;;5031010;28;20081;-88
2022/07/15 11:03:09;;;;;;;1.63;1.40;;;25.70;58.70;;;;;;5042518;28;20057;-88
2022/07/15 11:05:51;;;;;;;1.95;1.40;;;25.70;58.50;;;;;;5042476;28;20120;-88
2022/07/15 11:08:36;;;;;;;1.60;1.50;;;25.70;57.20;;;;;;5043349;28;20415;-86
2022/07/15 11:11:14;;;;;;;2.92;1.50;;;25.60;56.50;;;;;;5059573;28;20037;-86
2022/07/15 11:13:42;;;;;;;3.20;1.75;;;25.60;58.30;;;;;;5043129;28;20045;-90
2022/07/15 11:16:16;;;;;;;1.60;1.50;;;25.60;58.00;;;;;;5007414;28;20396;-91
2022/07/15 11:18:55;;;;;;;5.55;1.60;;;25.70;59.00;;;;;;5046161;28;20056;-88
2022/07/15 11:21:21;;;;;;;8.43;1.95;;;25.70;60.70;;;;;;5052103;28;20043;-83
2022/07/15 11:23:49;;;;;;;4.40;1.50;;;25.80;60.80;;;;;;5052070;28;20037;-84
2022/07/15 11:26:16;;;;;;;3.53;1.90;;;25.80;59.00;;;;;;5050946;28;20025;-85
2022/07/15 11:28:57;;;;;;;2.78;1.77;;;25.70;59.20;;;;;;5048091;28;20017;-86
2022/07/15 11:31:24;;;;;;;2.28;1.50;;;25.70;60.60;;;;;;5051955;28;20094;-85
2022/07/15 11:33:54;;;;;;;2.08;1.60;;;25.70;59.60;;;;;;5051574;28;20127;-84
2022/07/15 11:36:22;;;;;;;4.30;1.30;;;25.70;59.60;;;;;;5048685;28;20041;-85
2022/07/15 11:38:49;;;;;;;3.28;1.40;;;25.70;59.40;;;;;;5049002;28;20063;-86
2022/07/15 11:46:48;;;;;;;3.00;1.40;;;25.60;56.80;;;;;;5052811;28;20052;-87
2022/07/15 11:49:30;;;;;;;3.22;1.55;;;25.60;58.10;;;;;;5053254;28;20408;-89
2022/07/15 11:51:57;;;;;;;3.35;1.70;;;25.70;57.10;;;;;;5047134;28;20064;-84
2022/07/15 11:54:25;;;;;;;4.72;1.35;;;25.70;57.10;;;;;;5052356;28;20037;-82
2022/07/15 11:56:59;;;;;;;2.13;1.48;;;25.70;57.40;;;;;;5051620;28;20067;-82
2022/07/15 11:59:26;;;;;;;1.73;1.50;;;25.70;57.40;;;;;;5033770;28;20028;-82
2022/07/15 12:02:06;;;;;;;2.78;1.40;;;25.70;58.00;;;;;;5051455;28;20041;-82
2022/07/15 12:04:32;;;;;;;2.38;1.70;;;25.70;58.00;;;;;;5046997;28;20031;-82
2022/07/15 12:06:59;;;;;;;5.32;1.40;;;25.60;57.20;;;;;;5033519;28;20045;-80
2022/07/15 12:09:26;;;;;;;3.53;1.40;;;25.60;57.40;;;;;;5033654;28;20049;-82
2022/07/15 12:11:52;;;;;;;4.30;1.60;;;25.60;57.40;;;;;;5030263;28;20396;-86
2022/07/15 12:14:20;;;;;;;3.38;1.55;;;25.60;58.40;;;;;;5035102;28;20033;-81
2022/07/15 12:16:49;;;;;;;4.53;2.03;;;25.60;58.10;;;;;;5046155;28;20029;-88
2022/07/15 12:19:22;;;;;;;5.05;1.90;;;25.50;56.50;;;;;;5041577;28;20033;-90
2022/07/15 12:21:54;;;;;;;7.22;2.00;;;25.40;58.60;;;;;;5041618;28;20118;-88
2022/07/15 12:24:22;;;;;;;6.85;2.00;;;25.40;58.80;;;;;;5040734;28;20454;-83
2022/07/15 12:26:52;;;;;;;2.65;1.92;;;25.40;58.60;;;;;;5028074;28;20036;-87
2022/07/15 12:29:20;;;;;;;5.20;1.88;;;25.40;58.80;;;;;;5042308;28;20044;-84
2022/07/15 12:31:58;;;;;;;6.45;2.40;;;25.40;58.60;;;;;;5042517;28;20033;-82
2022/07/15 12:34:46;;;;;;;13.75;2.90;;;25.50;59.00;;;;;;5025692;28;20049;-86
2022/07/15 12:37:14;;;;;;;3.70;2.40;;;25.50;61.50;;;;;;5041485;28;20611;-84
2022/07/15 12:40:05;;;;;;;7.43;2.47;;;25.50;57.90;;;;;;5041598;28;20136;-84
2022/07/15 12:42:31;;;;;;;5.78;2.50;;;25.50;57.50;;;;;;5027812;28;20034;-84
2022/07/15 12:45:09;;;;;;;7.20;2.63;;;25.50;57.80;;;;;;5027641;28;21534;-83
2022/07/15 12:47:37;;;;;;;5.75;2.33;;;25.50;57.40;;;;;;5029372;28;20513;-84
2022/07/15 12:50:05;;;;;;;6.45;2.40;;;25.50;57.60;;;;;;5023876;28;20025;-84
2022/07/15 12:52:37;;;;;;;4.47;1.90;;;25.50;57.30;;;;;;5041949;28;20048;-82
2022/07/15 12:55:23;;;;;;;2.53;1.80;;;25.50;57.00;;;;;;5040847;28;20483;-83
2022/07/15 12:57:49;;;;;;;;;;;25.40;56.90;;;;;;5044126;28;20033;-83
2022/07/15 13:00:20;;;;;;;7.07;2.17;;;25.40;56.80;;;;;;5042042;28;20375;-84
2022/07/15 13:03:08;;;;;;;3.08;1.88;;;25.40;57.20;;;;;;5042268;28;20507;-83
2022/07/15 13:05:42;;;;;;;3.47;1.80;;;25.40;57.20;;;;;;5041089;28;20037;-86
2022/07/15 13:08:11;;;;;;;4.85;1.73;;;25.50;56.90;;;;;;5050068;28;20741;-85
2022/07/15 13:10:39;;;;;;;3.30;1.67;;;25.50;56.30;;;;;;5044978;28;20029;-84
2022/07/15 13:13:06;;;;;;;7.13;2.00;;;25.50;56.00;;;;;;5041285;28;20499;-85
2022/07/15 13:15:35;;;;;;;1.88;1.70;;;25.50;56.50;;;;;;5041929;28;20071;-85
2022/07/15 13:18:02;;;;;;;4.20;1.80;;;25.50;56.50;;;;;;5042532;28;20067;-85
2022/07/15 13:20:28;;;;;;;5.25;1.90;;;25.50;56.60;;;;;;5028096;28;20063;-86
2022/07/15 13:22:54;;;;;;;6.30;1.63;;;25.60;56.40;;;;;;5045224;28;20328;-83
2022/07/15 13:25:21;;;;;;;4.43;1.70;;;25.50;55.40;;;;;;5040069;28;20411;-84
2022/07/15 13:27:51;;;;;;;6.65;1.73;;;25.50;55.30;;;;;;5028496;28;20030;-84
2022/07/15 13:30:17;;;;;;;2.95;1.60;;;25.50;55.70;;;;;;5061519;28;20029;-83